sensor_id;sensor_type;location;lat;lon;timestamp;P1;durP1;ratioP1;P2;durP2;ratioP2
353;SDS011;165;53.592;10.044;2022-09-30T00:01:07;10.40;;;7.60;;
353;SDS011;165;53.592;10.044;2022-09-30T00:03:33;9.27;;;7.40;;
353;SDS011;165;53.592;10.044;2022-09-30T00:06:01;7.50;;;7.10;;
353;SDS011;165;53.592;10.044;2022-09-30T00:08:29;8.27;;;7.80;;
353;SDS011;165;53.592;10.044;2022-09-30T00:11:01;8.90;;;8.03;;
353;SDS011;165;53.592;10.044;2022-09-30T00:13:29;8.80;;;7.80;;
353;SDS011;165;53.592;10.044;2022-09-30T00:15:56;9.20;;;8.47;;
353;SDS011;165;53.592;10.044;2022-09-30T00:18:21;8.90;;;8.40;;
353;SDS011;165;53.592;10.044;2022-09-30T00:20:47;8.23;;;7.10;;
353;SDS011;165;53.592;10.044;2022-09-30T00:23:12;9.20;;;8.20;;
353;SDS011;165;53.592;10.044;2022-09-30T00:25:38;7.83;;;7.47;;
353;SDS011;165;53.592;10.044;2022-09-30T00:28:03;7.77;;;7.37;;
353;SDS011;165;53.592;10.044;2022-09-30T00:30:31;8.80;;;8.33;;
353;SDS011;165;53.592;10.044;2022-09-30T00:32:57;9.00;;;8.53;;
353;SDS011;165;53.592;10.044;2022-09-30T00:35:23;9.97;;;8.47;;
353;SDS011;165;53.592;10.044;2022-09-30T00:37:49;9.07;;;8.57;;
353;SDS011;165;53.592;10.044;2022-09-30T00:40:14;9.03;;;8.40;;
353;SDS011;165;53.592;10.044;2022-09-30T00:42:40;8.80;;;8.30;;
353;SDS011;165;53.592;10.044;2022-09-30T00:45:07;8.63;;;8.00;;
353;SDS011;165;53.592;10.044;2022-09-30T00:52:45;12.50;;;8.20;;
353;SDS011;165;53.592;10.044;2022-09-30T00:55:26;8.43;;;7.97;;
353;SDS011;165;53.592;10.044;2022-09-30T00:57:57;8.37;;;7.93;;
353;SDS011;165;53.592;10.044;2022-09-30T01:00:25;8.70;;;8.23;;
353;SDS011;165;53.592;10.044;2022-09-30T01:02:51;9.77;;;9.07;;
353;SDS011;165;53.592;10.044;2022-09-30T01:05:18;9.43;;;8.93;;
353;SDS011;165;53.592;10.044;2022-09-30T01:07:44;9.50;;;9.00;;
353;SDS011;165;53.592;10.044;2022-09-30T01:10:11;10.40;;;9.90;;
353;SDS011;165;53.592;10.044;2022-09-30T01:12:36;10.03;;;9.53;;
353;SDS011;165;53.592;10.044;2022-09-30T01:15:03;9.73;;;9.10;;
353;SDS011;165;53.592;10.044;2022-09-30T01:25:52;10.70;;;9.43;;
353;SDS011;165;53.592;10.044;2022-09-30T01:29:01;11.07;;;10.47;;
353;SDS011;165;53.592;10.044;2022-09-30T01:31:27;13.13;;;11.33;;
353;SDS011;165;53.592;10.044;2022-09-30T01:40:14;12.10;;;11.50;;
353;SDS011;165;53.592;10.044;2022-09-30T01:45:55;12.63;;;11.97;;
353;SDS011;165;53.592;10.044;2022-09-30T01:48:37;13.07;;;12.43;;
353;SDS011;165;53.592;10.044;2022-09-30T01:51:17;14.43;;;12.43;;
353;SDS011;165;53.592;10.044;2022-09-30T01:54:09;12.07;;;11.47;;
353;SDS011;165;53.592;10.044;2022-09-30T01:56:58;14.40;;;13.70;;
353;SDS011;165;53.592;10.044;2022-09-30T01:59:33;13.23;;;12.57;;
353;SDS011;165;53.592;10.044;2022-09-30T02:02:10;13.63;;;12.40;;
353;SDS011;165;53.592;10.044;2022-09-30T02:05:17;11.97;;;11.40;;
353;SDS011;165;53.592;10.044;2022-09-30T02:07:39;12.37;;;11.33;;
353;SDS011;165;53.592;10.044;2022-09-30T02:10:16;12.23;;;11.67;;
353;SDS011;165;53.592;10.044;2022-09-30T02:12:51;11.43;;;10.83;;
353;SDS011;165;53.592;10.044;2022-09-30T02:15:22;16.00;;;12.93;;
353;SDS011;165;53.592;10.044;2022-09-30T02:17:55;15.40;;;13.07;;
353;SDS011;165;53.592;10.044;2022-09-30T02:20:25;13.20;;;12.50;;
353;SDS011;165;53.592;10.044;2022-09-30T02:22:59;13.93;;;13.23;;
353;SDS011;165;53.592;10.044;2022-09-30T02:25:36;13.13;;;12.43;;
353;SDS011;165;53.592;10.044;2022-09-30T02:28:07;13.20;;;12.50;;
353;SDS011;165;53.592;10.044;2022-09-30T02:30:40;13.87;;;12.80;;
353;SDS011;165;53.592;10.044;2022-09-30T02:33:11;13.27;;;12.57;;
353;SDS011;165;53.592;10.044;2022-09-30T02:35:50;13.73;;;12.83;;
353;SDS011;165;53.592;10.044;2022-09-30T02:38:30;15.73;;;13.37;;
353;SDS011;165;53.592;10.044;2022-09-30T02:41:02;14.57;;;13.87;;
353;SDS011;165;53.592;10.044;2022-09-30T02:43:39;18.27;;;14.50;;
353;SDS011;165;53.592;10.044;2022-09-30T02:49:07;17.17;;;15.30;;
353;SDS011;165;53.592;10.044;2022-09-30T02:54:31;18.83;;;14.10;;
353;SDS011;165;53.592;10.044;2022-09-30T02:57:15;17.40;;;13.90;;
353;SDS011;165;53.592;10.044;2022-09-30T02:59:50;15.57;;;14.10;;
353;SDS011;165;53.592;10.044;2022-09-30T03:02:17;16.57;;;14.30;;
353;SDS011;165;53.592;10.044;2022-09-30T03:04:44;14.77;;;14.00;;
353;SDS011;165;53.592;10.044;2022-09-30T03:07:11;16.50;;;14.80;;
353;SDS011;165;53.592;10.044;2022-09-30T03:09:37;14.83;;;13.37;;
353;SDS011;165;53.592;10.044;2022-09-30T03:15:14;13.97;;;13.30;;
353;SDS011;165;53.592;10.044;2022-09-30T03:17:54;16.57;;;12.90;;
353;SDS011;165;53.592;10.044;2022-09-30T03:39:51;14.40;;;12.93;;
353;SDS011;165;53.592;10.044;2022-09-30T03:42:33;14.20;;;13.40;;
353;SDS011;165;53.592;10.044;2022-09-30T03:45:04;14.40;;;13.27;;
353;SDS011;165;53.592;10.044;2022-09-30T03:47:41;15.87;;;14.80;;
353;SDS011;165;53.592;10.044;2022-09-30T03:50:11;15.70;;;13.40;;
353;SDS011;165;53.592;10.044;2022-09-30T03:52:39;16.83;;;14.27;;
353;SDS011;165;53.592;10.044;2022-09-30T03:55:05;16.80;;;15.93;;
353;SDS011;165;53.592;10.044;2022-09-30T03:57:35;17.10;;;16.00;;
353;SDS011;165;53.592;10.044;2022-09-30T04:00:02;16.90;;;15.27;;
353;SDS011;165;53.592;10.044;2022-09-30T04:02:29;16.80;;;15.27;;
353;SDS011;165;53.592;10.044;2022-09-30T04:04:55;15.77;;;14.97;;
353;SDS011;165;53.592;10.044;2022-09-30T04:07:20;15.23;;;13.97;;
353;SDS011;165;53.592;10.044;2022-09-30T04:09:46;15.53;;;14.73;;
353;SDS011;165;53.592;10.044;2022-09-30T04:12:12;15.23;;;14.40;;
353;SDS011;165;53.592;10.044;2022-09-30T04:14:37;16.63;;;14.77;;
353;SDS011;165;53.592;10.044;2022-09-30T04:17:03;17.07;;;14.80;;
353;SDS011;165;53.592;10.044;2022-09-30T04:19:29;15.47;;;14.67;;
353;SDS011;165;53.592;10.044;2022-09-30T04:21:55;15.40;;;14.50;;
353;SDS011;165;53.592;10.044;2022-09-30T04:24:21;16.67;;;15.30;;
353;SDS011;165;53.592;10.044;2022-09-30T04:26:48;17.23;;;15.37;;
353;SDS011;165;53.592;10.044;2022-09-30T04:29:13;16.43;;;15.63;;
353;SDS011;165;53.592;10.044;2022-09-30T04:31:39;17.40;;;16.33;;
353;SDS011;165;53.592;10.044;2022-09-30T04:34:05;17.27;;;16.33;;
353;SDS011;165;53.592;10.044;2022-09-30T04:36:30;17.97;;;16.23;;
353;SDS011;165;53.592;10.044;2022-09-30T04:38:56;18.47;;;16.00;;
353;SDS011;165;53.592;10.044;2022-09-30T04:41:22;16.73;;;15.57;;
353;SDS011;165;53.592;10.044;2022-09-30T04:43:47;15.20;;;14.43;;
353;SDS011;165;53.592;10.044;2022-09-30T04:46:14;18.27;;;15.10;;
353;SDS011;165;53.592;10.044;2022-09-30T04:48:40;18.40;;;16.67;;
353;SDS011;165;53.592;10.044;2022-09-30T04:51:09;15.40;;;14.13;;
353;SDS011;165;53.592;10.044;2022-09-30T04:53:39;16.83;;;15.97;;
353;SDS011;165;53.592;10.044;2022-09-30T04:56:05;16.73;;;15.50;;
353;SDS011;165;53.592;10.044;2022-09-30T04:58:31;19.10;;;16.57;;
353;SDS011;165;53.592;10.044;2022-09-30T05:01:04;18.30;;;17.40;;
353;SDS011;165;53.592;10.044;2022-09-30T05:03:35;16.50;;;15.67;;
353;SDS011;165;53.592;10.044;2022-09-30T05:06:01;17.00;;;16.13;;
353;SDS011;165;53.592;10.044;2022-09-30T05:08:27;18.20;;;16.53;;
353;SDS011;165;53.592;10.044;2022-09-30T05:10:54;20.83;;;16.23;;
353;SDS011;165;53.592;10.044;2022-09-30T05:13:34;18.33;;;16.37;;
353;SDS011;165;53.592;10.044;2022-09-30T05:16:01;16.73;;;15.90;;
353;SDS011;165;53.592;10.044;2022-09-30T05:18:27;19.50;;;15.27;;
353;SDS011;165;53.592;10.044;2022-09-30T05:20:53;20.70;;;16.93;;
353;SDS011;165;53.592;10.044;2022-09-30T05:23:24;19.33;;;17.77;;
353;SDS011;165;53.592;10.044;2022-09-30T05:25:51;18.97;;;15.30;;
353;SDS011;165;53.592;10.044;2022-09-30T05:28:17;19.07;;;16.00;;
353;SDS011;165;53.592;10.044;2022-09-30T05:30:43;19.10;;;17.37;;
353;SDS011;165;53.592;10.044;2022-09-30T05:33:09;18.00;;;16.53;;
353;SDS011;165;53.592;10.044;2022-09-30T05:35:36;18.00;;;16.07;;
353;SDS011;165;53.592;10.044;2022-09-30T05:38:02;18.43;;;17.00;;
353;SDS011;165;53.592;10.044;2022-09-30T05:40:29;20.57;;;18.57;;
353;SDS011;165;53.592;10.044;2022-09-30T05:42:58;19.73;;;17.50;;
353;SDS011;165;53.592;10.044;2022-09-30T05:45:24;18.37;;;17.47;;
353;SDS011;165;53.592;10.044;2022-09-30T05:47:51;21.33;;;18.50;;
353;SDS011;165;53.592;10.044;2022-09-30T05:50:20;20.43;;;19.33;;
353;SDS011;165;53.592;10.044;2022-09-30T05:52:47;21.93;;;18.93;;
353;SDS011;165;53.592;10.044;2022-09-30T05:55:13;18.33;;;17.33;;
353;SDS011;165;53.592;10.044;2022-09-30T05:57:40;23.23;;;19.03;;
353;SDS011;165;53.592;10.044;2022-09-30T06:00:06;20.20;;;18.80;;
353;SDS011;165;53.592;10.044;2022-09-30T06:02:32;28.43;;;20.33;;
353;SDS011;165;53.592;10.044;2022-09-30T06:05:02;22.77;;;18.30;;
353;SDS011;165;53.592;10.044;2022-09-30T06:07:34;21.77;;;19.53;;
353;SDS011;165;53.592;10.044;2022-09-30T06:10:01;20.50;;;18.90;;
353;SDS011;165;53.592;10.044;2022-09-30T06:12:31;20.57;;;18.63;;
353;SDS011;165;53.592;10.044;2022-09-30T06:14:58;21.53;;;19.37;;
353;SDS011;165;53.592;10.044;2022-09-30T06:17:23;21.10;;;19.80;;
353;SDS011;165;53.592;10.044;2022-09-30T06:19:49;21.83;;;19.57;;
353;SDS011;165;53.592;10.044;2022-09-30T06:22:15;20.70;;;17.20;;
353;SDS011;165;53.592;10.044;2022-09-30T06:24:41;18.60;;;16.47;;
353;SDS011;165;53.592;10.044;2022-09-30T06:27:07;18.60;;;15.20;;
353;SDS011;165;53.592;10.044;2022-09-30T06:29:32;17.13;;;13.90;;
353;SDS011;165;53.592;10.044;2022-09-30T06:31:58;17.10;;;14.00;;
353;SDS011;165;53.592;10.044;2022-09-30T06:34:23;14.77;;;12.93;;
353;SDS011;165;53.592;10.044;2022-09-30T06:36:49;13.03;;;12.33;;
353;SDS011;165;53.592;10.044;2022-09-30T06:39:14;14.63;;;12.43;;
353;SDS011;165;53.592;10.044;2022-09-30T06:41:40;12.70;;;12.00;;
353;SDS011;165;53.592;10.044;2022-09-30T06:44:07;12.33;;;11.73;;
353;SDS011;165;53.592;10.044;2022-09-30T06:46:33;11.30;;;10.70;;
353;SDS011;165;53.592;10.044;2022-09-30T06:48:59;11.20;;;10.60;;
353;SDS011;165;53.592;10.044;2022-09-30T06:51:24;13.20;;;10.00;;
353;SDS011;165;53.592;10.044;2022-09-30T06:53:51;11.37;;;10.17;;
353;SDS011;165;53.592;10.044;2022-09-30T06:56:18;10.67;;;10.10;;
353;SDS011;165;53.592;10.044;2022-09-30T06:58:44;10.93;;;10.33;;
353;SDS011;165;53.592;10.044;2022-09-30T07:01:11;11.80;;;11.00;;
353;SDS011;165;53.592;10.044;2022-09-30T07:03:38;12.80;;;9.70;;
353;SDS011;165;53.592;10.044;2022-09-30T07:06:04;11.83;;;11.23;;
353;SDS011;165;53.592;10.044;2022-09-30T07:08:31;10.97;;;9.80;;
353;SDS011;165;53.592;10.044;2022-09-30T07:10:59;15.80;;;10.63;;
353;SDS011;165;53.592;10.044;2022-09-30T07:13:26;11.73;;;9.90;;
353;SDS011;165;53.592;10.044;2022-09-30T07:15:52;11.70;;;11.10;;
353;SDS011;165;53.592;10.044;2022-09-30T07:18:19;12.23;;;11.23;;
353;SDS011;165;53.592;10.044;2022-09-30T07:20:52;12.73;;;12.03;;
353;SDS011;165;53.592;10.044;2022-09-30T07:23:19;15.93;;;12.53;;
353;SDS011;165;53.592;10.044;2022-09-30T07:25:58;14.93;;;12.07;;
353;SDS011;165;53.592;10.044;2022-09-30T07:28:27;12.13;;;10.83;;
353;SDS011;165;53.592;10.044;2022-09-30T07:30:56;11.33;;;9.53;;
353;SDS011;165;53.592;10.044;2022-09-30T07:33:23;10.00;;;9.50;;
353;SDS011;165;53.592;10.044;2022-09-30T07:35:54;10.30;;;9.80;;
353;SDS011;165;53.592;10.044;2022-09-30T07:38:21;12.23;;;9.90;;
353;SDS011;165;53.592;10.044;2022-09-30T07:40:53;12.63;;;10.97;;
353;SDS011;165;53.592;10.044;2022-09-30T07:43:22;8.93;;;8.43;;
353;SDS011;165;53.592;10.044;2022-09-30T07:45:49;9.10;;;8.60;;
353;SDS011;165;53.592;10.044;2022-09-30T07:48:15;7.93;;;7.50;;
353;SDS011;165;53.592;10.044;2022-09-30T07:50:59;9.80;;;9.13;;
353;SDS011;165;53.592;10.044;2022-09-30T07:53:25;8.30;;;7.90;;
353;SDS011;165;53.592;10.044;2022-09-30T07:55:50;9.53;;;8.00;;
353;SDS011;165;53.592;10.044;2022-09-30T07:58:16;8.23;;;7.80;;
353;SDS011;165;53.592;10.044;2022-09-30T08:00:47;8.00;;;7.60;;
353;SDS011;165;53.592;10.044;2022-09-30T08:03:14;8.03;;;7.63;;
353;SDS011;165;53.592;10.044;2022-09-30T08:05:42;8.57;;;8.07;;
353;SDS011;165;53.592;10.044;2022-09-30T08:08:09;8.17;;;7.77;;
353;SDS011;165;53.592;10.044;2022-09-30T08:10:39;8.70;;;8.20;;
353;SDS011;165;53.592;10.044;2022-09-30T08:13:04;8.93;;;8.43;;
353;SDS011;165;53.592;10.044;2022-09-30T08:15:30;7.90;;;7.50;;
353;SDS011;165;53.592;10.044;2022-09-30T08:17:58;7.50;;;7.10;;
353;SDS011;165;53.592;10.044;2022-09-30T08:20:24;7.23;;;6.83;;
353;SDS011;165;53.592;10.044;2022-09-30T08:22:53;7.60;;;7.20;;
353;SDS011;165;53.592;10.044;2022-09-30T08:25:19;12.63;;;11.63;;
353;SDS011;165;53.592;10.044;2022-09-30T08:27:48;9.53;;;8.00;;
353;SDS011;165;53.592;10.044;2022-09-30T08:30:14;7.63;;;7.23;;
353;SDS011;165;53.592;10.044;2022-09-30T08:32:40;8.17;;;7.20;;
353;SDS011;165;53.592;10.044;2022-09-30T08:35:06;10.70;;;9.43;;
353;SDS011;165;53.592;10.044;2022-09-30T08:37:32;7.70;;;7.30;;
353;SDS011;165;53.592;10.044;2022-09-30T08:39:57;7.30;;;6.90;;
353;SDS011;165;53.592;10.044;2022-09-30T08:44:48;6.47;;;6.00;;
353;SDS011;165;53.592;10.044;2022-09-30T08:47:33;5.67;;;5.37;;
353;SDS011;165;53.592;10.044;2022-09-30T08:53:09;4.30;;;4.00;;
353;SDS011;165;53.592;10.044;2022-09-30T08:55:43;5.17;;;4.00;;
353;SDS011;165;53.592;10.044;2022-09-30T09:00:53;12.30;;;3.50;;
353;SDS011;165;53.592;10.044;2022-09-30T09:03:25;3.67;;;3.53;;
353;SDS011;165;53.592;10.044;2022-09-30T09:06:00;5.20;;;4.63;;
353;SDS011;165;53.592;10.044;2022-09-30T09:14:06;8.23;;;4.00;;
353;SDS011;165;53.592;10.044;2022-09-30T09:19:56;4.97;;;3.20;;
353;SDS011;165;53.592;10.044;2022-09-30T09:22:40;8.20;;;3.93;;
353;SDS011;165;53.592;10.044;2022-09-30T09:25:11;3.77;;;3.57;;
353;SDS011;165;53.592;10.044;2022-09-30T09:30:16;3.67;;;3.00;;
353;SDS011;165;53.592;10.044;2022-09-30T09:32:47;3.10;;;2.90;;
353;SDS011;165;53.592;10.044;2022-09-30T09:35:35;3.73;;;2.90;;
353;SDS011;165;53.592;10.044;2022-09-30T09:38:29;4.03;;;3.60;;
353;SDS011;165;53.592;10.044;2022-09-30T09:43:52;3.97;;;3.07;;
353;SDS011;165;53.592;10.044;2022-09-30T09:46:40;4.23;;;3.00;;
353;SDS011;165;53.592;10.044;2022-09-30T09:54:48;4.73;;;4.00;;
353;SDS011;165;53.592;10.044;2022-09-30T09:57:20;4.90;;;2.90;;
353;SDS011;165;53.592;10.044;2022-09-30T10:00:08;2.97;;;2.80;;
353;SDS011;165;53.592;10.044;2022-09-30T10:03:13;3.93;;;2.80;;
353;SDS011;165;53.592;10.044;2022-09-30T10:05:43;3.03;;;2.43;;
353;SDS011;165;53.592;10.044;2022-09-30T10:08:15;5.20;;;4.13;;
353;SDS011;165;53.592;10.044;2022-09-30T10:10:46;4.10;;;2.77;;
353;SDS011;165;53.592;10.044;2022-09-30T10:13:20;3.20;;;3.10;;
353;SDS011;165;53.592;10.044;2022-09-30T10:15:51;4.00;;;3.03;;
353;SDS011;165;53.592;10.044;2022-09-30T10:18:37;4.37;;;3.20;;
353;SDS011;165;53.592;10.044;2022-09-30T10:21:04;3.10;;;2.70;;
353;SDS011;165;53.592;10.044;2022-09-30T10:23:36;7.10;;;6.07;;
353;SDS011;165;53.592;10.044;2022-09-30T10:28:53;5.67;;;4.20;;
353;SDS011;165;53.592;10.044;2022-09-30T10:31:21;5.30;;;3.97;;
353;SDS011;165;53.592;10.044;2022-09-30T10:36:41;5.73;;;4.23;;
353;SDS011;165;53.592;10.044;2022-09-30T10:39:22;4.37;;;4.10;;
353;SDS011;165;53.592;10.044;2022-09-30T10:41:59;12.97;;;12.30;;
353;SDS011;165;53.592;10.044;2022-09-30T10:44:40;4.30;;;3.43;;
353;SDS011;165;53.592;10.044;2022-09-30T10:47:19;4.30;;;4.00;;
353;SDS011;165;53.592;10.044;2022-09-30T10:52:28;6.57;;;4.17;;
353;SDS011;165;53.592;10.044;2022-09-30T10:54:57;5.23;;;4.93;;
353;SDS011;165;53.592;10.044;2022-09-30T10:57:25;5.27;;;4.20;;
353;SDS011;165;53.592;10.044;2022-09-30T11:00:04;6.47;;;4.67;;
353;SDS011;165;53.592;10.044;2022-09-30T11:02:36;5.03;;;4.80;;
353;SDS011;165;53.592;10.044;2022-09-30T11:07:53;3.70;;;2.00;;
353;SDS011;165;53.592;10.044;2022-09-30T11:13:15;7.43;;;5.13;;
353;SDS011;165;53.592;10.044;2022-09-30T11:21:58;2.93;;;2.10;;
353;SDS011;165;53.592;10.044;2022-09-30T11:24:40;7.07;;;5.87;;
353;SDS011;165;53.592;10.044;2022-09-30T11:27:11;4.97;;;2.67;;
353;SDS011;165;53.592;10.044;2022-09-30T11:32:50;3.37;;;2.00;;
353;SDS011;165;53.592;10.044;2022-09-30T11:35:43;3.30;;;2.47;;
353;SDS011;165;53.592;10.044;2022-09-30T11:41:08;3.33;;;2.20;;
353;SDS011;165;53.592;10.044;2022-09-30T11:51:21;2.10;;;1.50;;
353;SDS011;165;53.592;10.044;2022-09-30T11:57:22;12.63;;;9.67;;
353;SDS011;165;53.592;10.044;2022-09-30T11:59:58;4.00;;;2.00;;
353;SDS011;165;53.592;10.044;2022-09-30T12:02:41;2.37;;;2.13;;
353;SDS011;165;53.592;10.044;2022-09-30T12:05:45;2.87;;;2.60;;
353;SDS011;165;53.592;10.044;2022-09-30T12:08:15;2.97;;;1.87;;
353;SDS011;165;53.592;10.044;2022-09-30T12:11:10;2.60;;;1.70;;
353;SDS011;165;53.592;10.044;2022-09-30T12:13:42;5.43;;;2.60;;
353;SDS011;165;53.592;10.044;2022-09-30T12:16:15;4.60;;;2.10;;
353;SDS011;165;53.592;10.044;2022-09-30T12:18:50;4.20;;;2.73;;
353;SDS011;165;53.592;10.044;2022-09-30T12:21:25;4.50;;;3.37;;
353;SDS011;165;53.592;10.044;2022-09-30T12:26:30;4.60;;;2.90;;
353;SDS011;165;53.592;10.044;2022-09-30T12:29:06;4.23;;;3.17;;
353;SDS011;165;53.592;10.044;2022-09-30T12:32:11;3.00;;;2.80;;
353;SDS011;165;53.592;10.044;2022-09-30T12:46:29;7.03;;;4.40;;
353;SDS011;165;53.592;10.044;2022-09-30T12:49:24;5.03;;;4.30;;
353;SDS011;165;53.592;10.044;2022-09-30T12:51:54;5.70;;;4.67;;
353;SDS011;165;53.592;10.044;2022-09-30T12:54:24;8.97;;;6.87;;
353;SDS011;165;53.592;10.044;2022-09-30T12:56:57;9.97;;;8.47;;
353;SDS011;165;53.592;10.044;2022-09-30T12:59:28;8.30;;;7.77;;
353;SDS011;165;53.592;10.044;2022-09-30T13:01:56;7.27;;;5.17;;
353;SDS011;165;53.592;10.044;2022-09-30T13:04:31;5.00;;;4.00;;
353;SDS011;165;53.592;10.044;2022-09-30T13:09:34;4.90;;;4.60;;
353;SDS011;165;53.592;10.044;2022-09-30T13:12:38;4.90;;;4.07;;
353;SDS011;165;53.592;10.044;2022-09-30T13:17:53;8.63;;;6.13;;
353;SDS011;165;53.592;10.044;2022-09-30T13:23:33;6.80;;;4.80;;
353;SDS011;165;53.592;10.044;2022-09-30T13:31:30;5.27;;;4.30;;
353;SDS011;165;53.592;10.044;2022-09-30T13:34:20;5.10;;;4.10;;
353;SDS011;165;53.592;10.044;2022-09-30T13:37:01;4.83;;;4.00;;
353;SDS011;165;53.592;10.044;2022-09-30T13:42:20;4.57;;;4.30;;
353;SDS011;165;53.592;10.044;2022-09-30T13:50:44;8.93;;;8.47;;
353;SDS011;165;53.592;10.044;2022-09-30T13:53:32;8.53;;;8.03;;
353;SDS011;165;53.592;10.044;2022-09-30T13:56:46;6.57;;;5.70;;
353;SDS011;165;53.592;10.044;2022-09-30T14:01:56;5.00;;;4.70;;
353;SDS011;165;53.592;10.044;2022-09-30T14:16:39;5.73;;;5.30;;
353;SDS011;165;53.592;10.044;2022-09-30T14:22:07;6.47;;;5.23;;
353;SDS011;165;53.592;10.044;2022-09-30T14:24:35;6.33;;;5.93;;
353;SDS011;165;53.592;10.044;2022-09-30T14:27:14;7.00;;;6.53;;
353;SDS011;165;53.592;10.044;2022-09-30T14:35:50;6.77;;;6.30;;
353;SDS011;165;53.592;10.044;2022-09-30T14:38:21;6.97;;;6.57;;
353;SDS011;165;53.592;10.044;2022-09-30T14:40:52;10.10;;;9.60;;
353;SDS011;165;53.592;10.044;2022-09-30T14:43:20;7.00;;;6.43;;
353;SDS011;165;53.592;10.044;2022-09-30T14:45:56;6.60;;;6.13;;
353;SDS011;165;53.592;10.044;2022-09-30T14:48:28;7.00;;;6.33;;
353;SDS011;165;53.592;10.044;2022-09-30T14:50:59;7.80;;;6.80;;
353;SDS011;165;53.592;10.044;2022-09-30T14:53:30;7.10;;;6.70;;
353;SDS011;165;53.592;10.044;2022-09-30T14:55:57;9.63;;;9.13;;
353;SDS011;165;53.592;10.044;2022-09-30T15:00:56;10.30;;;7.93;;
353;SDS011;165;53.592;10.044;2022-09-30T15:03:27;8.30;;;7.67;;
353;SDS011;165;53.592;10.044;2022-09-30T15:05:55;8.57;;;8.03;;
353;SDS011;165;53.592;10.044;2022-09-30T15:08:21;7.30;;;6.90;;
353;SDS011;165;53.592;10.044;2022-09-30T15:10:48;7.67;;;7.27;;
353;SDS011;165;53.592;10.044;2022-09-30T15:13:17;7.67;;;6.93;;
353;SDS011;165;53.592;10.044;2022-09-30T15:15:45;8.23;;;7.40;;
353;SDS011;165;53.592;10.044;2022-09-30T15:18:21;9.07;;;8.57;;
353;SDS011;165;53.592;10.044;2022-09-30T15:21:10;10.30;;;9.83;;
353;SDS011;165;53.592;10.044;2022-09-30T15:23:39;7.83;;;7.37;;
353;SDS011;165;53.592;10.044;2022-09-30T15:26:12;7.30;;;6.90;;
353;SDS011;165;53.592;10.044;2022-09-30T15:28:40;7.73;;;7.17;;
353;SDS011;165;53.592;10.044;2022-09-30T15:31:12;7.43;;;7.03;;
353;SDS011;165;53.592;10.044;2022-09-30T15:34:10;8.13;;;6.80;;
353;SDS011;165;53.592;10.044;2022-09-30T15:37:02;10.40;;;9.87;;
353;SDS011;165;53.592;10.044;2022-09-30T15:39:32;9.63;;;9.13;;
353;SDS011;165;53.592;10.044;2022-09-30T15:42:28;7.43;;;6.93;;
353;SDS011;165;53.592;10.044;2022-09-30T15:45:00;7.93;;;7.57;;
353;SDS011;165;53.592;10.044;2022-09-30T15:48:18;9.43;;;8.93;;
353;SDS011;165;53.592;10.044;2022-09-30T15:50:43;17.10;;;16.03;;
353;SDS011;165;53.592;10.044;2022-09-30T15:53:16;21.20;;;17.80;;
353;SDS011;165;53.592;10.044;2022-09-30T15:55:44;14.97;;;12.60;;
353;SDS011;165;53.592;10.044;2022-09-30T16:01:08;8.57;;;7.63;;
353;SDS011;165;53.592;10.044;2022-09-30T16:03:39;11.47;;;10.87;;
353;SDS011;165;53.592;10.044;2022-09-30T16:11:25;9.00;;;8.50;;
353;SDS011;165;53.592;10.044;2022-09-30T16:13:56;8.37;;;7.93;;
353;SDS011;165;53.592;10.044;2022-09-30T16:16:27;8.97;;;7.80;;
353;SDS011;165;53.592;10.044;2022-09-30T16:18:55;9.30;;;8.80;;
353;SDS011;165;53.592;10.044;2022-09-30T16:24:41;10.73;;;9.60;;
353;SDS011;165;53.592;10.044;2022-09-30T16:27:14;10.00;;;9.50;;
353;SDS011;165;53.592;10.044;2022-09-30T16:29:45;9.50;;;9.00;;
353;SDS011;165;53.592;10.044;2022-09-30T16:32:10;8.20;;;7.80;;
353;SDS011;165;53.592;10.044;2022-09-30T16:34:38;9.53;;;9.03;;
353;SDS011;165;53.592;10.044;2022-09-30T16:37:11;10.97;;;10.37;;
353;SDS011;165;53.592;10.044;2022-09-30T16:39:38;7.90;;;7.50;;
353;SDS011;165;53.592;10.044;2022-09-30T16:42:04;50.93;;;36.37;;
353;SDS011;165;53.592;10.044;2022-09-30T16:44:30;10.07;;;9.57;;
353;SDS011;165;53.592;10.044;2022-09-30T16:46:59;12.67;;;10.60;;
353;SDS011;165;53.592;10.044;2022-09-30T16:49:25;11.50;;;9.67;;
353;SDS011;165;53.592;10.044;2022-09-30T16:51:51;12.90;;;10.80;;
353;SDS011;165;53.592;10.044;2022-09-30T16:54:17;10.00;;;9.43;;
353;SDS011;165;53.592;10.044;2022-09-30T16:56:42;11.20;;;8.83;;
353;SDS011;165;53.592;10.044;2022-09-30T16:59:15;10.83;;;9.90;;
353;SDS011;165;53.592;10.044;2022-09-30T17:01:42;9.90;;;9.20;;
353;SDS011;165;53.592;10.044;2022-09-30T17:04:08;9.27;;;8.77;;
353;SDS011;165;53.592;10.044;2022-09-30T17:06:34;8.97;;;8.47;;
353;SDS011;165;53.592;10.044;2022-09-30T17:09:00;8.47;;;8.00;;
353;SDS011;165;53.592;10.044;2022-09-30T17:11:28;12.10;;;10.27;;
353;SDS011;165;53.592;10.044;2022-09-30T17:13:57;12.23;;;11.20;;
353;SDS011;165;53.592;10.044;2022-09-30T17:16:23;11.83;;;9.13;;
353;SDS011;165;53.592;10.044;2022-09-30T17:18:49;10.17;;;8.50;;
353;SDS011;165;53.592;10.044;2022-09-30T17:21:16;10.50;;;8.90;;
353;SDS011;165;53.592;10.044;2022-09-30T17:23:42;11.50;;;10.90;;
353;SDS011;165;53.592;10.044;2022-09-30T17:26:08;12.90;;;11.93;;
353;SDS011;165;53.592;10.044;2022-09-30T17:28:34;11.97;;;11.37;;
353;SDS011;165;53.592;10.044;2022-09-30T17:31:00;16.50;;;15.70;;
353;SDS011;165;53.592;10.044;2022-09-30T17:33:29;13.97;;;13.27;;
353;SDS011;165;53.592;10.044;2022-09-30T17:36:00;14.50;;;13.80;;
353;SDS011;165;53.592;10.044;2022-09-30T17:38:27;17.13;;;13.17;;
353;SDS011;165;53.592;10.044;2022-09-30T17:40:53;13.63;;;12.93;;
353;SDS011;165;53.592;10.044;2022-09-30T17:43:37;14.50;;;13.17;;
353;SDS011;165;53.592;10.044;2022-09-30T17:46:03;15.73;;;14.27;;
353;SDS011;165;53.592;10.044;2022-09-30T17:48:29;13.13;;;11.70;;
353;SDS011;165;53.592;10.044;2022-09-30T17:50:55;14.93;;;11.73;;
353;SDS011;165;53.592;10.044;2022-09-30T17:53:21;13.07;;;11.63;;
353;SDS011;165;53.592;10.044;2022-09-30T17:55:48;10.80;;;10.17;;
353;SDS011;165;53.592;10.044;2022-09-30T17:58:24;13.10;;;12.40;;
353;SDS011;165;53.592;10.044;2022-09-30T18:00:50;24.10;;;16.00;;
353;SDS011;165;53.592;10.044;2022-09-30T18:03:15;22.90;;;16.90;;
353;SDS011;165;53.592;10.044;2022-09-30T18:05:41;18.10;;;14.60;;
353;SDS011;165;53.592;10.044;2022-09-30T18:08:10;15.20;;;13.40;;
353;SDS011;165;53.592;10.044;2022-09-30T18:10:36;15.80;;;13.07;;
353;SDS011;165;53.592;10.044;2022-09-30T18:13:01;13.00;;;12.20;;
353;SDS011;165;53.592;10.044;2022-09-30T18:15:27;13.20;;;11.97;;
353;SDS011;165;53.592;10.044;2022-09-30T18:17:53;12.17;;;11.57;;
353;SDS011;165;53.592;10.044;2022-09-30T18:20:19;11.13;;;9.90;;
353;SDS011;165;53.592;10.044;2022-09-30T18:22:44;17.70;;;11.43;;
353;SDS011;165;53.592;10.044;2022-09-30T18:25:10;11.70;;;10.20;;
353;SDS011;165;53.592;10.044;2022-09-30T18:28:02;13.73;;;12.40;;
353;SDS011;165;53.592;10.044;2022-09-30T18:30:30;12.17;;;10.43;;
353;SDS011;165;53.592;10.044;2022-09-30T18:32:56;18.90;;;12.20;;
353;SDS011;165;53.592;10.044;2022-09-30T18:35:26;13.97;;;12.60;;
353;SDS011;165;53.592;10.044;2022-09-30T18:37:54;13.47;;;11.40;;
353;SDS011;165;53.592;10.044;2022-09-30T18:40:20;24.07;;;11.60;;
353;SDS011;165;53.592;10.044;2022-09-30T18:42:51;12.80;;;11.57;;
353;SDS011;165;53.592;10.044;2022-09-30T18:45:22;11.23;;;10.33;;
353;SDS011;165;53.592;10.044;2022-09-30T18:47:55;11.57;;;11.00;;
353;SDS011;165;53.592;10.044;2022-09-30T18:50:23;11.00;;;10.00;;